Avoca, Texas
Current Conditions -  °F | °C
As of 8:52 PM on Friday 31 Oct 2014 (Local Time) from KABI Reporting Station
Clear Clear  
Wind Chill: 13°   Ceiling: Unl
Heat Index: 13°   Visibility: 10mi
Dew Point:   Wind: 7mph
Humidity: 43%   Direction: 60°ENE
Pressure: 30.35"   Gusts: NA
Location:  32.87°N, 99.72°W
Report Text: KABI 010152Z 06006KT 10SM CLR 13/01 A3035 RMK AO2 SLP272 T01280006
Loading
Personal Weather Stations






























Interactive Weather Map
Tropical Storm Tracking
New forecast layout! Learn more

10-Day Weather Forecast

Advertisements
Track Severe Weather on mobile